Schneifelwetter: Wetterstation Hallschlag, 537 m . NN
Wetterdaten: Mittwoch, 24.02.2010
Datum Zeit Temp. A. Feuchte A. Luftdruck Regen Wind Richtung Richtung Sonnenschein Helligkeit T Regen Taupunkt Windchill
24.02.2010 00:10 3,9 C 99 % 995 hPa 0,0 l/m 28,6 km/h (4 Bft) W-SW22.5 245 0 min 0 lux 0,00 min 3,8 C -7,5 C
24.02.2010 00:25 3,8 C 99 % 995 hPa 0,0 l/m 18,7 km/h (3 Bft) W-SW22.5 240 0 min 0 lux 0,00 min 3,7 C -4,2 C
24.02.2010 00:40 3,7 C 99 % 996 hPa 0,0 l/m 20,9 km/h (4 Bft) W-SW22.5 245 0 min 0 lux 0,00 min 3,6 C -5,2 C
24.02.2010 00:55 3,9 C 99 % 995 hPa 0,0 l/m 19,8 km/h (3 Bft) SW45 235 0 min 0 lux 0,00 min 3,8 C -4,5 C
24.02.2010 01:09 4,0 C 99 % 996 hPa 0,0 l/m 23,0 km/h (4 Bft) SW67.5 230 0 min 0 lux 0,00 min 3,9 C -5,6 C
24.02.2010 01:24 4,0 C 99 % 996 hPa 0,0 l/m 22,5 km/h (4 Bft) SW45 235 0 min 0 lux 0,00 min 3,9 C -5,4 C
24.02.2010 01:39 3,9 C 99 % 996 hPa 0,0 l/m 12,3 km/h (3 Bft) SW45 235 0 min 0 lux 0,00 min 3,8 C -0,7 C
24.02.2010 01:54 3,9 C 99 % 996 hPa 0,0 l/m 16,3 km/h (3 Bft) SW45 220 0 min 0 lux 0,00 min 3,8 C -2,9 C
24.02.2010 02:09 4,1 C 99 % 996 hPa 0,0 l/m 19,8 km/h (3 Bft) SW45 215 0 min 0 lux 0,00 min 4,0 C -4,3 C
24.02.2010 02:24 4,0 C 99 % 996 hPa 0,0 l/m 14,6 km/h (3 Bft) S-SW22.5 205 0 min 0 lux 0,00 min 3,9 C -1,9 C
24.02.2010 02:39 4,0 C 99 % 996 hPa 0,0 l/m 15,8 km/h (3 Bft) SW45 220 0 min 0 lux 0,00 min 3,9 C -2,5 C
24.02.2010 02:54 4,1 C 99 % 996 hPa 0,0 l/m 16,0 km/h (3 Bft) SW22.5 215 0 min 0 lux 0,00 min 4,0 C -2,5 C
24.02.2010 03:09 4,2 C 99 % 996 hPa 0,0 l/m 16,5 km/h (3 Bft) S-SW22.5 210 0 min 0 lux 0,00 min 4,1 C -2,7 C
24.02.2010 03:24 4,2 C 99 % 996 hPa 0,0 l/m 15,0 km/h (3 Bft) SW45 215 0 min 0 lux 0,00 min 4,1 C -1,9 C
24.02.2010 03:39 4,3 C 99 % 996 hPa 0,3 l/m 26,3 km/h (4 Bft) S-SW45 210 0 min 0 lux 15,00 min 4,2 C -6,3 C
24.02.2010 03:54 4,3 C 99 % 996 hPa 0,0 l/m 19,2 km/h (3 Bft) SW22.5 215 0 min 0 lux 0,00 min 4,2 C -3,7 C
24.02.2010 04:09 4,3 C 99 % 996 hPa 0,3 l/m 23,3 km/h (4 Bft) S-SW22.5 205 0 min 0 lux 15,00 min 4,2 C -5,3 C
24.02.2010 04:24 4,3 C 99 % 996 hPa 0,3 l/m 15,3 km/h (3 Bft) SW22.5 215 0 min 0 lux 15,00 min 4,2 C -1,9 C
24.02.2010 04:39 4,2 C 99 % 996 hPa 0,0 l/m 18,3 km/h (3 Bft) SW45 215 0 min 0 lux 0,00 min 4,1 C -3,5 C
24.02.2010 04:54 4,1 C 99 % 996 hPa 0,0 l/m 12,8 km/h (3 Bft) S-SW22.5 205 0 min 0 lux 0,00 min 4,0 C -0,8 C
24.02.2010 05:09 4,1 C 99 % 996 hPa 0,0 l/m 14,5 km/h (3 Bft) SW45 225 0 min 0 lux 0,00 min 4,0 C -1,7 C
24.02.2010 05:24 4,1 C 99 % 996 hPa 0,0 l/m 24,8 km/h (4 Bft) SW67.5 230 0 min 0 lux 0,00 min 4,0 C -6,1 C
24.02.2010 05:39 4,0 C 99 % 996 hPa 0,0 l/m 22,3 km/h (4 Bft) SW22.5 235 0 min 0 lux 0,00 min 3,9 C -5,4 C
24.02.2010 05:54 4,0 C 99 % 996 hPa 0,0 l/m 23,9 km/h (4 Bft) SW45 220 0 min 0 lux 0,00 min 3,9 C -5,9 C
24.02.2010 06:09 4,0 C 99 % 996 hPa 0,0 l/m 18,1 km/h (3 Bft) SW45 215 0 min 0 lux 0,00 min 3,9 C -3,6 C
24.02.2010 06:24 3,9 C 99 % 996 hPa 0,0 l/m 19,8 km/h (3 Bft) SW45 220 0 min 0 lux 0,00 min 3,8 C -4,5 C
24.02.2010 06:39 3,9 C 99 % 996 hPa 0,0 l/m 19,6 km/h (3 Bft) SW45 220 0 min 0 lux 0,00 min 3,8 C -4,4 C
24.02.2010 06:54 3,7 C 99 % 996 hPa 0,0 l/m 16,7 km/h (3 Bft) SW22.5 235 0 min 0 lux 0,00 min 3,6 C -3,4 C
24.02.2010 07:09 3,5 C 99 % 996 hPa 0,0 l/m 10,8 km/h (2 Bft) W-SW 240 0 min 41 lux 0,00 min 3,4 C -0,2 C
24.02.2010 07:24 3,4 C 99 % 996 hPa 0,0 l/m 19,0 km/h (3 Bft) SW45 230 0 min 696 lux 0,00 min 3,3 C -4,8 C
24.02.2010 07:39 3,3 C 99 % 997 hPa 0,0 l/m 11,5 km/h (2 Bft) SW22.5 220 0 min 1,13 klux 0,00 min 3,2 C -0,9 C
24.02.2010 08:01 3,4 C 99 % 997 hPa 0,0 l/m 9,8 km/h (2 Bft) W-SW 245 0 min 3,06 klux 0,00 min 3,3 C 0,5 C
24.02.2010 08:16 3,5 C 99 % 997 hPa 0,0 l/m 12,3 km/h (3 Bft) SW22.5 225 0 min 3,77 klux 0,00 min 3,4 C -1,2 C
24.02.2010 08:31 3,8 C 99 % 997 hPa 0,0 l/m 21,4 km/h (4 Bft) SW45 220 0 min 3,18 klux 0,00 min 3,7 C -5,3 C
24.02.2010 08:45 4,0 C 99 % 997 hPa 0,0 l/m 21,7 km/h (4 Bft) S-SW22.5 210 0 min 8,23 klux 0,00 min 3,9 C -5,1 C
24.02.2010 09:00 4,3 C 99 % 997 hPa 0,0 l/m 15,8 km/h (3 Bft) S-SW45 205 0 min 6,57 klux 0,00 min 4,2 C -2,2 C
24.02.2010 09:15 4,3 C 99 % 997 hPa 0,0 l/m 21,1 km/h (4 Bft) SW45 215 0 min 8,48 klux 0,00 min 4,2 C -4,5 C
24.02.2010 09:30 4,6 C 99 % 997 hPa 0,0 l/m 22,2 km/h (4 Bft) S-SW45 210 0 min 11,2 klux 0,00 min 4,5 C -4,5 C
24.02.2010 09:46 4,7 C 99 % 997 hPa 0,0 l/m 23,6 km/h (4 Bft) SW45 220 0 min 9,5 klux 0,00 min 4,6 C -4,9 C
24.02.2010 10:01 4,9 C 99 % 997 hPa 0,0 l/m 26,6 km/h (4 Bft) S-SW22.5 210 0 min 19,4 klux 0,00 min 4,8 C -5,6 C
24.02.2010 10:16 5,6 C 99 % 997 hPa 0,0 l/m 21,3 km/h (4 Bft) SW45 215 15 min 32,2 klux 0,00 min 5,5 C -2,9 C
24.02.2010 10:30 5,9 C 98 % 997 hPa 0,0 l/m 30,5 km/h (5 Bft) S-SW45 210 14 min 34,0 klux 0,00 min 5,6 C -5,2 C
24.02.2010 10:45 6,1 C 96 % 998 hPa 0,0 l/m 22,1 km/h (4 Bft) SW22.5 215 0 min 25,6 klux 0,00 min 5,5 C -2,5 C
24.02.2010 11:00 6,1 C 95 % 998 hPa 0,0 l/m 24,6 km/h (4 Bft) SW45 225 0 min 23,2 klux 0,00 min 5,4 C -3,3 C
24.02.2010 11:15 6,3 C 94 % 998 hPa 0,0 l/m 27,8 km/h (4 Bft) SW45 220 15 min 36,9 klux 0,00 min 5,4 C -4,0 C
24.02.2010 11:31 6,6 C 93 % 998 hPa 0,0 l/m 27,1 km/h (4 Bft) SW45 220 16 min 35,6 klux 0,00 min 5,6 C -3,4 C
24.02.2010 11:46 7,0 C 92 % 998 hPa 0,0 l/m 26,0 km/h (4 Bft) SW45 215 15 min 40,7 klux 0,00 min 5,8 C -2,5 C
24.02.2010 12:01 7,1 C 91 % 998 hPa 0,0 l/m 30,6 km/h (5 Bft) S-SW45 210 0 min 26,0 klux 0,00 min 5,7 C -3,6 C
24.02.2010 12:15 7,1 C 91 % 998 hPa 0,0 l/m 21,7 km/h (4 Bft) SW45 230 14 min 28,5 klux 0,00 min 5,7 C -1,1 C
24.02.2010 12:30 7,0 C 92 % 998 hPa 0,0 l/m 21,4 km/h (4 Bft) SW45 220 0 min 22,0 klux 0,00 min 5,8 C -1,1 C
24.02.2010 12:45 7,0 C 91 % 998 hPa 0,0 l/m 20,7 km/h (4 Bft) S-SW45 205 0 min 19,9 klux 0,00 min 5,6 C -0,8 C
24.02.2010 13:00 6,8 C 91 % 998 hPa 0,0 l/m 23,3 km/h (4 Bft) SW45 215 0 min 17,2 klux 0,00 min 5,4 C -2,0 C
24.02.2010 13:16 7,2 C 91 % 998 hPa 0,0 l/m 22,0 km/h (4 Bft) SW22.5 215 16 min 37,1 klux 0,00 min 5,8 C -1,0 C
24.02.2010 13:31 7,6 C 90 % 998 hPa 0,0 l/m 22,2 km/h (4 Bft) S45 190 15 min 38,3 klux 0,00 min 6,1 C -0,6 C
24.02.2010 13:46 7,7 C 89 % 998 hPa 0,0 l/m 22,8 km/h (4 Bft) SW45 215 15 min 31,3 klux 0,00 min 6,0 C -0,6 C
24.02.2010 14:00 8,2 C 89 % 998 hPa 0,0 l/m 20,9 km/h (4 Bft) S45 190 14 min 47,6 klux 0,00 min 6,5 C 0,7 C
24.02.2010 14:15 8,2 C 88 % 998 hPa 0,0 l/m 20,5 km/h (4 Bft) S-SW45 200 15 min 30,0 klux 0,00 min 6,3 C 0,8 C
24.02.2010 14:30 8,6 C 88 % 998 hPa 0,0 l/m 20,2 km/h (4 Bft) S-SW22.5 200 15 min 64,8 klux 0,00 min 6,7 C 1,4 C
24.02.2010 14:45 8,7 C 87 % 998 hPa 0,0 l/m 17,5 km/h (3 Bft) S45 185 15 min 39,0 klux 0,00 min 6,7 C 2,5 C
24.02.2010 15:01 8,0 C 88 % 998 hPa 0,0 l/m 16,3 km/h (3 Bft) S22.5 185 0 min 25,8 klux 0,00 min 6,1 C 2,1 C
24.02.2010 15:16 7,8 C 89 % 998 hPa 0,0 l/m 16,8 km/h (3 Bft) S-SO45 165 0 min 25,8 klux 0,00 min 6,1 C 1,7 C
24.02.2010 15:31 7,6 C 90 % 998 hPa 0,0 l/m 16,8 km/h (3 Bft) S-SO22.5 160 15 min 31,7 klux 0,00 min 6,1 C 1,4 C
24.02.2010 15:45 7,5 C 90 % 997 hPa 0,0 l/m 16,0 km/h (3 Bft) S-SO22.5 165 0 min 22,3 klux 0,00 min 6,0 C 1,7 C
24.02.2010 16:00 7,5 C 91 % 997 hPa 0,0 l/m 16,6 km/h (3 Bft) S-SO22.5 165 15 min 35,6 klux 0,00 min 6,1 C 1,4 C
24.02.2010 16:15 7,4 C 91 % 997 hPa 0,0 l/m 14,8 km/h (3 Bft) S-SO22.5 165 15 min 29,4 klux 0,00 min 6,0 C 2,1 C
24.02.2010 16:30 7,2 C 91 % 997 hPa 0,0 l/m 10,2 km/h (2 Bft) S22.5 185 0 min 19,9 klux 0,00 min 5,8 C 4,4 C
24.02.2010 16:46 7,0 C 92 % 997 hPa 0,0 l/m 13,0 km/h (3 Bft) S-SO22.5 165 0 min 8,63 klux 0,00 min 5,8 C 2,5 C
24.02.2010 17:01 6,8 C 92 % 997 hPa 0,0 l/m 10,2 km/h (2 Bft) S22.5 170 0 min 5,19 klux 0,00 min 5,6 C 3,9 C
24.02.2010 17:15 6,4 C 93 % 997 hPa 0,0 l/m 16,8 km/h (3 Bft) S22.5 180 0 min 2,45 klux 0,00 min 5,4 C -0,1 C
24.02.2010 17:30 6,4 C 95 % 997 hPa 0,0 l/m 23,1 km/h (4 Bft) SW45 220 0 min 777 lux 0,00 min 5,7 C -2,5 C
24.02.2010 17:45 6,2 C 95 % 997 hPa 0,0 l/m 25,0 km/h (4 Bft) SW45 215 0 min 4,12 klux 0,00 min 5,5 C -3,3 C
24.02.2010 18:00 6,0 C 95 % 997 hPa 0,0 l/m 21,7 km/h (4 Bft) S22.5 180 0 min 3,01 klux 0,00 min 5,3 C -2,5 C
24.02.2010 18:16 5,6 C 95 % 997 hPa 0,0 l/m 22,1 km/h (4 Bft) S22.5 170 0 min 343 lux 0,00 min 4,9 C -3,2 C
24.02.2010 18:31 5,1 C 96 % 997 hPa 0,0 l/m 19,9 km/h (4 Bft) S22.5 185 0 min 93 lux 0,00 min 4,5 C -3,0 C
24.02.2010 18:46 4,7 C 97 % 997 hPa 0,0 l/m 18,4 km/h (3 Bft) S22.5 180 0 min 15 lux 0,00 min 4,3 C -2,9 C
24.02.2010 19:00 4,6 C 97 % 997 hPa 0,0 l/m 14,1 km/h (3 Bft) S22.5 175 0 min 0 lux 0,00 min 4,2 C -0,9 C
24.02.2010 19:15 4,5 C 97 % 997 hPa 0,0 l/m 14,3 km/h (3 Bft) S22.5 170 0 min 0 lux 0,00 min 4,1 C -1,2 C
24.02.2010 19:30 4,5 C 97 % 997 hPa 0,0 l/m 16,8 km/h (3 Bft) S22.5 170 0 min 0 lux 0,00 min 4,1 C -2,4 C
24.02.2010 19:45 4,5 C 98 % 997 hPa 0,0 l/m 15,8 km/h (3 Bft) S-SW45 195 0 min 0 lux 0,00 min 4,2 C -1,9 C
24.02.2010 20:01 4,8 C 98 % 997 hPa 0,0 l/m 23,3 km/h (4 Bft) S-SW67.5 205 0 min 0 lux 0,00 min 4,5 C -4,7 C
24.02.2010 20:16 4,9 C 98 % 997 hPa 0,0 l/m 26,4 km/h (4 Bft) S-SW67.5 210 0 min 0 lux 0,00 min 4,6 C -5,5 C
24.02.2010 20:30 4,7 C 97 % 997 hPa 0,0 l/m 26,0 km/h (4 Bft) SW45 220 0 min 0 lux 0,00 min 4,3 C -5,7 C
24.02.2010 20:45 4,7 C 97 % 997 hPa 0,0 l/m 28,4 km/h (4 Bft) SW45 220 0 min 0 lux 0,00 min 4,3 C -6,4 C
24.02.2010 21:00 4,7 C 97 % 997 hPa 0,0 l/m 30,8 km/h (5 Bft) S-SW45 205 0 min 0 lux 0,00 min 4,3 C -7,0 C
24.02.2010 21:15 4,7 C 97 % 997 hPa 0,0 l/m 25,3 km/h (4 Bft) S-SW45 210 0 min 0 lux 0,00 min 4,3 C -5,4 C
24.02.2010 21:30 4,7 C 97 % 997 hPa 0,0 l/m 24,5 km/h (4 Bft) S45 185 0 min 0 lux 0,00 min 4,3 C -5,2 C
24.02.2010 21:46 4,7 C 97 % 997 hPa 1,8 l/m 27,2 km/h (4 Bft) SW67.5 215 0 min 0 lux 16,00 min 4,3 C -6,0 C
24.02.2010 22:01 4,7 C 96 % 997 hPa 0,0 l/m 31,2 km/h (5 Bft) S22.5 190 0 min 0 lux 0,00 min 4,1 C -7,1 C
24.02.2010 22:15 4,7 C 96 % 996 hPa 0,0 l/m 29,8 km/h (5 Bft) S-SW45 195 0 min 0 lux 0,00 min 4,1 C -6,7 C
24.02.2010 22:30 4,6 C 96 % 997 hPa 0,0 l/m 33,2 km/h (5 Bft) SW67.5 215 0 min 0 lux 0,00 min 4,0 C -7,7 C
24.02.2010 22:45 4,6 C 96 % 997 hPa 0,0 l/m 31,8 km/h (5 Bft) S-SW45 200 0 min 0 lux 0,00 min 4,0 C -7,4 C
24.02.2010 23:00 4,5 C 96 % 996 hPa 0,0 l/m 28,0 km/h (4 Bft) S-SW45 195 0 min 0 lux 0,00 min 3,9 C -6,5 C
24.02.2010 23:16 4,5 C 96 % 996 hPa 0,0 l/m 33,1 km/h (5 Bft) S45 185 0 min 0 lux 0,00 min 3,9 C -7,8 C
24.02.2010 23:31 4,4 C 97 % 996 hPa 0,0 l/m 32,4 km/h (5 Bft) S-SW45 195 0 min 0 lux 0,00 min 4,0 C -7,8 C
24.02.2010 23:45 4,4 C 97 % 996 hPa 0,0 l/m 32,9 km/h (5 Bft) SW45 220 0 min 0 lux 0,00 min 4,0 C -7,9 C
_ Min-Zeit 07:39 14:45 00:10 - 08:01 - - - - - 07:39 23:45
Minimum _ 3,3 C 87 % 995 hPa - 9,8 km/h (2 Bft) - - - - - 3,2 C -7,9 C
_ Max-Zeit 14:45 00:10 10:45 21:46 22:30 - - 11:31 14:30 21:46 14:30 16:30
Maximum _ 8,7 C 99 % 998 hPa 1,8 l/m 33,2 km/h
SW (5 Bft)
- - 16 min 64,8 klux 16,00 min 6,7 C 4,4 C
Durchschnitt _ 5,2 C 96 % 997 hPa #2,7 l/m 21,0 km/h (4 Bft) SW - #3:59 h 9,7 klux #1:01 h 4,6 C -3,0 C